sensor_id;sensor_type;location;lat;lon;timestamp;pressure;altitude;pressure_sealevel;temperature;humidity
21877;BME280;11103;43.788;23.710;2022-09-20T00:01:53;149270.78;;;11.47;100.00
21877;BME280;11103;43.788;23.710;2022-09-20T00:04:19;149246.41;;;11.37;100.00
21877;BME280;11103;43.788;23.710;2022-09-20T00:06:44;149228.50;;;11.30;100.00
21877;BME280;11103;43.788;23.710;2022-09-20T00:09:10;149208.03;;;11.22;100.00
21877;BME280;11103;43.788;23.710;2022-09-20T00:11:36;149225.94;;;11.29;100.00
21877;BME280;11103;43.788;23.710;2022-09-20T00:14:04;149228.50;;;11.30;100.00
21877;BME280;11103;43.788;23.710;2022-09-20T00:16:34;149223.34;;;11.28;100.00
21877;BME280;11103;43.788;23.710;2022-09-20T00:19:01;149082.53;;;10.72;100.00
21877;BME280;11103;43.788;23.710;2022-09-20T00:21:30;149174.69;;;11.09;100.00
21877;BME280;11103;43.788;23.710;2022-09-20T00:23:57;149187.53;;;11.14;100.00
21877;BME280;11103;43.788;23.710;2022-09-20T00:26:23;149199.03;;;11.18;100.00
21877;BME280;11103;43.788;23.710;2022-09-20T00:28:49;149149.09;;;10.99;100.00
21877;BME280;11103;43.788;23.710;2022-09-20T00:31:16;149172.16;;;11.08;100.00
21877;BME280;11103;43.788;23.710;2022-09-20T00:33:41;149128.63;;;10.91;100.00
21877;BME280;11103;43.788;23.710;2022-09-20T00:36:26;149085.06;;;10.73;100.00
21877;BME280;11103;43.788;23.710;2022-09-20T00:38:55;149159.38;;;11.03;100.00
21877;BME280;11103;43.788;23.710;2022-09-20T00:41:21;149126.09;;;10.90;100.00
21877;BME280;11103;43.788;23.710;2022-09-20T00:43:47;149115.81;;;10.86;100.00
21877;BME280;11103;43.788;23.710;2022-09-20T00:46:34;149131.19;;;10.92;100.00
21877;BME280;11103;43.788;23.710;2022-09-20T00:51:37;149028.81;;;10.51;100.00
21877;BME280;11103;43.788;23.710;2022-09-20T00:54:06;149009.56;;;10.44;100.00
21877;BME280;11103;43.788;23.710;2022-09-20T00:56:36;148991.66;;;10.37;100.00
21877;BME280;11103;43.788;23.710;2022-09-20T00:59:26;148994.25;;;10.38;100.00
21877;BME280;11103;43.788;23.710;2022-09-20T01:02:17;149013.44;;;10.45;100.00
21877;BME280;11103;43.788;23.710;2022-09-20T01:04:45;148946.91;;;10.19;100.00
21877;BME280;11103;43.788;23.710;2022-09-20T01:07:15;148964.81;;;10.26;100.00
21877;BME280;11103;43.788;23.710;2022-09-20T01:09:42;148950.72;;;10.21;100.00
21877;BME280;11103;43.788;23.710;2022-09-20T01:12:13;149018.53;;;10.47;100.00
21877;BME280;11103;43.788;23.710;2022-09-20T01:14:42;148981.47;;;10.33;100.00
21877;BME280;11103;43.788;23.710;2022-09-20T01:17:09;148998.06;;;10.39;100.00
21877;BME280;11103;43.788;23.710;2022-09-20T01:22:32;148952.00;;;10.21;100.00
21877;BME280;11103;43.788;23.710;2022-09-20T01:25:17;149021.13;;;10.48;100.00
21877;BME280;11103;43.788;23.710;2022-09-20T01:27:49;148964.81;;;10.26;100.00
21877;BME280;11103;43.788;23.710;2022-09-20T01:30:43;149041.59;;;10.56;100.00
21877;BME280;11103;43.788;23.710;2022-09-20T01:33:19;149046.69;;;10.58;100.00
21877;BME280;11103;43.788;23.710;2022-09-20T01:35:49;149014.72;;;10.46;100.00
21877;BME280;11103;43.788;23.710;2022-09-20T01:41:47;149009.56;;;10.44;100.00
21877;BME280;11103;43.788;23.710;2022-09-20T01:44:33;149040.31;;;10.56;100.00
21877;BME280;11103;43.788;23.710;2022-09-20T01:47:19;149033.91;;;10.53;100.00
21877;BME280;11103;43.788;23.710;2022-09-20T01:50:10;149023.66;;;10.49;100.00
21877;BME280;11103;43.788;23.710;2022-09-20T01:53:10;149013.44;;;10.45;100.00
21877;BME280;11103;43.788;23.710;2022-09-20T02:07:17;148996.78;;;10.39;100.00
21877;BME280;11103;43.788;23.710;2022-09-20T02:13:00;149023.66;;;10.49;100.00
21877;BME280;11103;43.788;23.710;2022-09-20T02:15:58;149015.97;;;10.46;100.00
21877;BME280;11103;43.788;23.710;2022-09-20T02:21:30;148928.91;;;10.12;100.00
21877;BME280;11103;43.788;23.710;2022-09-20T02:32:26;149045.41;;;10.58;100.00
21877;BME280;11103;43.788;23.710;2022-09-20T02:40:52;149112.00;;;10.84;100.00
21877;BME280;11103;43.788;23.710;2022-09-20T02:42:49;149137.59;;;10.94;100.00
21877;BME280;11103;43.788;23.710;2022-09-20T02:45:31;149110.72;;;10.84;100.00
21877;BME280;11103;43.788;23.710;2022-09-20T02:48:03;149168.28;;;11.06;100.00
21877;BME280;11103;43.788;23.710;2022-09-20T02:50:53;149095.34;;;10.77;100.00
21877;BME280;11103;43.788;23.710;2022-09-20T02:53:57;149192.66;;;11.16;100.00
21877;BME280;11103;43.788;23.710;2022-09-20T02:56:59;149215.72;;;11.25;100.00
21877;BME280;11103;43.788;23.710;2022-09-20T02:59:37;149232.34;;;11.31;100.00
21877;BME280;11103;43.788;23.710;2022-09-20T03:10:20;149290.00;;;11.54;100.00
21877;BME280;11103;43.788;23.710;2022-09-20T03:21:11;149128.63;;;10.91;100.00
21877;BME280;11103;43.788;23.710;2022-09-20T03:24:04;149167.06;;;11.06;100.00
21877;BME280;11103;43.788;23.710;2022-09-20T03:26:56;149141.41;;;10.96;100.00
21877;BME280;11103;43.788;23.710;2022-09-20T03:34:48;149064.59;;;10.65;100.00
21877;BME280;11103;43.788;23.710;2022-09-20T03:46:38;149041.59;;;10.56;100.00
21877;BME280;11103;43.788;23.710;2022-09-20T04:03:22;149155.50;;;11.01;100.00
21877;BME280;11103;43.788;23.710;2022-09-20T04:11:29;149225.94;;;11.29;100.00
21877;BME280;11103;43.788;23.710;2022-09-20T04:14:02;149150.38;;;10.99;100.00
21877;BME280;11103;43.788;23.710;2022-09-20T04:19:09;149135.00;;;10.93;100.00
21877;BME280;11103;43.788;23.710;2022-09-20T04:21:50;149128.63;;;10.91;100.00
21877;BME280;11103;43.788;23.710;2022-09-20T04:24:49;149187.53;;;11.14;100.00
21877;BME280;11103;43.788;23.710;2022-09-20T04:27:40;149188.78;;;11.14;100.00
21877;BME280;11103;43.788;23.710;2022-09-20T04:35:37;149169.59;;;11.07;100.00
21877;BME280;11103;43.788;23.710;2022-09-20T04:38:25;149173.44;;;11.08;100.00
21877;BME280;11103;43.788;23.710;2022-09-20T05:00:21;149234.91;;;11.32;100.00
21877;BME280;11103;43.788;23.710;2022-09-20T05:06:02;149282.28;;;11.51;100.00
21877;BME280;11103;43.788;23.710;2022-09-20T05:28:15;149548.88;;;12.56;100.00
21877;BME280;11103;43.788;23.710;2022-09-20T05:34:06;149597.59;;;12.75;100.00
21877;BME280;11103;43.788;23.710;2022-09-20T05:39:37;149605.31;;;12.78;100.00
21877;BME280;11103;43.788;23.710;2022-09-20T05:42:19;149615.59;;;12.82;100.00
21877;BME280;11103;43.788;23.710;2022-09-20T05:51:30;149858.09;;;13.78;100.00
21877;BME280;11103;43.788;23.710;2022-09-20T06:04:41;150518.56;;;16.37;84.67
21877;BME280;11103;43.788;23.710;2022-09-20T06:07:29;150446.56;;;16.08;86.40
21877;BME280;11103;43.788;23.710;2022-09-20T06:23:40;150357.81;;;15.74;89.05
21877;BME280;11103;43.788;23.710;2022-09-20T06:26:12;150321.88;;;15.60;88.03
21877;BME280;11103;43.788;23.710;2022-09-20T06:28:42;150337.25;;;15.66;86.39
21877;BME280;11103;43.788;23.710;2022-09-20T06:31:10;150347.56;;;15.70;87.75
21877;BME280;11103;43.788;23.710;2022-09-20T06:34:09;150356.56;;;15.73;88.23
21877;BME280;11103;43.788;23.710;2022-09-20T06:36:38;150384.88;;;15.84;87.53
21877;BME280;11103;43.788;23.710;2022-09-20T06:39:45;150387.41;;;15.85;85.41
21877;BME280;11103;43.788;23.710;2022-09-20T06:42:31;150334.72;;;15.65;86.26
21877;BME280;11103;43.788;23.710;2022-09-20T06:44:57;150393.84;;;15.88;84.80
21877;BME280;11103;43.788;23.710;2022-09-20T06:47:22;150366.84;;;15.77;86.92
21877;BME280;11103;43.788;23.710;2022-09-20T06:49:48;150380.97;;;15.83;89.11
21877;BME280;11103;43.788;23.710;2022-09-20T06:52:17;150398.97;;;15.90;85.42
21877;BME280;11103;43.788;23.710;2022-09-20T06:54:44;150373.25;;;15.80;85.14
21877;BME280;11103;43.788;23.710;2022-09-20T06:57:15;150388.69;;;15.86;84.45
21877;BME280;11103;43.788;23.710;2022-09-20T06:59:41;150419.59;;;15.98;83.87
21877;BME280;11103;43.788;23.710;2022-09-20T07:02:06;150393.84;;;15.88;86.22
21877;BME280;11103;43.788;23.710;2022-09-20T07:04:33;150434.97;;;16.04;82.15
21877;BME280;11103;43.788;23.710;2022-09-20T07:07:06;150438.84;;;16.05;80.01
21877;BME280;11103;43.788;23.710;2022-09-20T07:09:32;150377.16;;;15.81;79.91
21877;BME280;11103;43.788;23.710;2022-09-20T07:11:58;150391.28;;;15.87;81.25
21877;BME280;11103;43.788;23.710;2022-09-20T07:14:25;150458.13;;;16.13;82.15
21877;BME280;11103;43.788;23.710;2022-09-20T07:16:51;150434.97;;;16.04;82.33
21877;BME280;11103;43.788;23.710;2022-09-20T07:19:17;150459.44;;;16.14;82.67
21877;BME280;11103;43.788;23.710;2022-09-20T07:21:42;150488.97;;;16.25;80.93
21877;BME280;11103;43.788;23.710;2022-09-20T07:24:08;150519.84;;;16.37;82.91
21877;BME280;11103;43.788;23.710;2022-09-20T07:26:33;150545.56;;;16.47;82.05
21877;BME280;11103;43.788;23.710;2022-09-20T07:28:59;150579.06;;;16.60;81.04
21877;BME280;11103;43.788;23.710;2022-09-20T07:31:28;150563.66;;;16.54;78.58
21877;BME280;11103;43.788;23.710;2022-09-20T07:33:54;150553.28;;;16.50;79.07
21877;BME280;11103;43.788;23.710;2022-09-20T07:36:19;150579.06;;;16.60;79.48
21877;BME280;11103;43.788;23.710;2022-09-20T07:38:49;150539.16;;;16.45;79.36
21877;BME280;11103;43.788;23.710;2022-09-20T07:41:16;150625.41;;;16.79;77.40
21877;BME280;11103;43.788;23.710;2022-09-20T07:43:44;150604.81;;;16.71;76.53
21877;BME280;11103;43.788;23.710;2022-09-20T07:46:10;150599.69;;;16.69;76.75
21877;BME280;11103;43.788;23.710;2022-09-20T07:48:38;150557.19;;;16.52;78.19
21877;BME280;11103;43.788;23.710;2022-09-20T07:51:06;150607.38;;;16.72;79.30
21877;BME280;11103;43.788;23.710;2022-09-20T07:53:35;150603.53;;;16.70;77.46
21877;BME280;11103;43.788;23.710;2022-09-20T07:56:14;150651.13;;;16.89;77.68
21877;BME280;11103;43.788;23.710;2022-09-20T07:58:40;150688.47;;;17.03;75.92
21877;BME280;11103;43.788;23.710;2022-09-20T08:01:08;150705.16;;;17.10;74.74
21877;BME280;11103;43.788;23.710;2022-09-20T08:03:34;150636.97;;;16.83;75.00
21877;BME280;11103;43.788;23.710;2022-09-20T08:06:05;150684.56;;;17.02;73.96
21877;BME280;11103;43.788;23.710;2022-09-20T08:08:35;150562.38;;;16.54;76.22
21877;BME280;11103;43.788;23.710;2022-09-20T08:11:07;150723.22;;;17.17;72.12
21877;BME280;11103;43.788;23.710;2022-09-20T08:13:37;150652.41;;;16.89;71.86
21877;BME280;11103;43.788;23.710;2022-09-20T08:16:05;150715.50;;;17.14;72.74
21877;BME280;11103;43.788;23.710;2022-09-20T08:18:33;150754.06;;;17.29;72.74
21877;BME280;11103;43.788;23.710;2022-09-20T08:21:03;150764.41;;;17.33;74.04
21877;BME280;11103;43.788;23.710;2022-09-20T08:23:33;150777.25;;;17.38;71.80
21877;BME280;11103;43.788;23.710;2022-09-20T08:25:59;150782.41;;;17.40;72.41
21877;BME280;11103;43.788;23.710;2022-09-20T08:28:24;150774.66;;;17.37;70.85
21877;BME280;11103;43.788;23.710;2022-09-20T08:30:49;150794.00;;;17.45;69.75
21877;BME280;11103;43.788;23.710;2022-09-20T08:33:15;150769.53;;;17.35;71.01
21877;BME280;11103;43.788;23.710;2022-09-20T08:35:40;150828.78;;;17.58;73.39
21877;BME280;11103;43.788;23.710;2022-09-20T08:38:06;150842.94;;;17.64;74.67
21877;BME280;11103;43.788;23.710;2022-09-20T08:40:32;150848.13;;;17.66;72.47
21877;BME280;11103;43.788;23.710;2022-09-20T08:42:59;150864.84;;;17.72;69.83
21877;BME280;11103;43.788;23.710;2022-09-20T08:45:25;150844.25;;;17.64;70.36
21877;BME280;11103;43.788;23.710;2022-09-20T08:47:55;150837.81;;;17.62;72.85
21877;BME280;11103;43.788;23.710;2022-09-20T08:50:22;150849.44;;;17.66;67.68
21877;BME280;11103;43.788;23.710;2022-09-20T08:52:52;150916.38;;;17.93;68.57
21877;BME280;11103;43.788;23.710;2022-09-20T08:55:21;150918.97;;;17.94;69.29
21877;BME280;11103;43.788;23.710;2022-09-20T08:57:49;150967.84;;;18.13;65.93
21877;BME280;11103;43.788;23.710;2022-09-20T09:00:30;150962.72;;;18.11;66.46
21877;BME280;11103;43.788;23.710;2022-09-20T09:02:59;150964.00;;;18.11;63.42
21877;BME280;11103;43.788;23.710;2022-09-20T09:05:32;150980.78;;;18.18;64.76
21877;BME280;11103;43.788;23.710;2022-09-20T09:07:59;151001.38;;;18.26;65.64
21877;BME280;11103;43.788;23.710;2022-09-20T09:10:32;150967.84;;;18.13;65.26
21877;BME280;11103;43.788;23.710;2022-09-20T09:13:00;150993.66;;;18.23;64.05
21877;BME280;11103;43.788;23.710;2022-09-20T09:15:30;151011.66;;;18.30;61.84
21877;BME280;11103;43.788;23.710;2022-09-20T09:17:57;150987.22;;;18.20;64.93
21877;BME280;11103;43.788;23.710;2022-09-20T09:20:23;151029.72;;;18.37;65.38
21877;BME280;11103;43.788;23.710;2022-09-20T09:23:05;150978.19;;;18.17;63.54
21877;BME280;11103;43.788;23.710;2022-09-20T09:25:37;150994.94;;;18.23;60.64
21877;BME280;11103;43.788;23.710;2022-09-20T09:30:40;151032.28;;;18.38;61.20
21877;BME280;11103;43.788;23.710;2022-09-20T09:33:25;151090.31;;;18.61;60.25
21877;BME280;11103;43.788;23.710;2022-09-20T09:38:26;151122.53;;;18.73;59.39
21877;BME280;11103;43.788;23.710;2022-09-20T09:40:58;151139.28;;;18.80;57.86
21877;BME280;11103;43.788;23.710;2022-09-20T09:43:27;151181.84;;;18.96;57.93
21877;BME280;11103;43.788;23.710;2022-09-20T09:48:38;151168.94;;;18.91;54.98
21877;BME280;11103;43.788;23.710;2022-09-20T09:53:32;151171.50;;;18.92;56.74
21877;BME280;11103;43.788;23.710;2022-09-20T10:01:34;151201.16;;;19.04;56.78
21877;BME280;11103;43.788;23.710;2022-09-20T10:07:09;151321.13;;;19.51;56.90
21877;BME280;11103;43.788;23.710;2022-09-20T10:15:23;151283.66;;;19.36;52.86
21877;BME280;11103;43.788;23.710;2022-09-20T10:18:13;151254.00;;;19.25;55.23
21877;BME280;11103;43.788;23.710;2022-09-20T10:32:02;151321.13;;;19.51;54.92
21877;BME280;11103;43.788;23.710;2022-09-20T10:35:03;151328.84;;;19.54;53.29
21877;BME280;11103;43.788;23.710;2022-09-20T10:40:34;151357.19;;;19.65;54.20
21877;BME280;11103;43.788;23.710;2022-09-20T10:43:38;151432.03;;;19.94;58.10
21877;BME280;11103;43.788;23.710;2022-09-20T10:49:09;151555.91;;;20.43;52.68
21877;BME280;11103;43.788;23.710;2022-09-20T10:51:57;151548.19;;;20.40;51.96
21877;BME280;11103;43.788;23.710;2022-09-20T10:54:37;151537.84;;;20.36;50.45
21877;BME280;11103;43.788;23.710;2022-09-20T11:06:06;151355.94;;;19.65;50.25
21877;BME280;11103;43.788;23.710;2022-09-20T11:08:39;151423.00;;;19.91;51.87
21877;BME280;11103;43.788;23.710;2022-09-20T11:11:22;151439.78;;;19.97;49.79
21877;BME280;11103;43.788;23.710;2022-09-20T11:14:10;151455.22;;;20.03;51.80
21877;BME280;11103;43.788;23.710;2022-09-20T11:16:41;151424.28;;;19.91;50.35
21877;BME280;11103;43.788;23.710;2022-09-20T11:19:22;151377.81;;;19.73;52.66
21877;BME280;11103;43.788;23.710;2022-09-20T11:24:27;151339.16;;;19.58;52.80
21877;BME280;11103;43.788;23.710;2022-09-20T11:27:17;151212.75;;;19.09;53.12
21877;BME280;11103;43.788;23.710;2022-09-20T11:29:46;151432.03;;;19.94;52.33
21877;BME280;11103;43.788;23.710;2022-09-20T11:32:16;151535.28;;;20.35;50.46
21877;BME280;11103;43.788;23.710;2022-09-20T11:34:50;151625.63;;;20.70;49.93
21877;BME280;11103;43.788;23.710;2022-09-20T11:37:21;151615.25;;;20.66;48.51
21877;BME280;11103;43.788;23.710;2022-09-20T11:39:54;151495.25;;;20.19;49.14
21877;BME280;11103;43.788;23.710;2022-09-20T11:42:23;151522.38;;;20.30;48.47
21877;BME280;11103;43.788;23.710;2022-09-20T11:44:50;151437.19;;;19.96;50.32
21877;BME280;11103;43.788;23.710;2022-09-20T11:47:27;151452.66;;;20.02;50.47
21877;BME280;11103;43.788;23.710;2022-09-20T11:53:53;151504.25;;;20.23;49.55
21877;BME280;11103;43.788;23.710;2022-09-20T11:55:51;151599.81;;;20.60;48.69
21877;BME280;11103;43.788;23.710;2022-09-20T11:58:23;151677.22;;;20.90;51.36
21877;BME280;11103;43.788;23.710;2022-09-20T12:00:53;151770.25;;;21.26;50.56
21877;BME280;11103;43.788;23.710;2022-09-20T12:03:36;151846.44;;;21.56;48.55
21877;BME280;11103;43.788;23.710;2022-09-20T12:06:30;151757.34;;;21.21;47.21
21877;BME280;11103;43.788;23.710;2022-09-20T12:08:59;151710.81;;;21.03;46.51
21877;BME280;11103;43.788;23.710;2022-09-20T12:11:30;151663.00;;;20.85;47.70
21877;BME280;11103;43.788;23.710;2022-09-20T12:14:03;151599.81;;;20.60;47.02
21877;BME280;11103;43.788;23.710;2022-09-20T12:16:37;151546.88;;;20.39;46.44
21877;BME280;11103;43.788;23.710;2022-09-20T12:19:05;151497.78;;;20.20;46.54
21877;BME280;11103;43.788;23.710;2022-09-20T12:26:50;151502.94;;;20.22;49.21
21877;BME280;11103;43.788;23.710;2022-09-20T12:31:53;151593.31;;;20.57;46.79
21877;BME280;11103;43.788;23.710;2022-09-20T12:39:28;151648.81;;;20.79;46.67
21877;BME280;11103;43.788;23.710;2022-09-20T12:42:04;151691.41;;;20.96;46.54
21877;BME280;11103;43.788;23.710;2022-09-20T12:44:38;151665.63;;;20.86;46.33
21877;BME280;11103;43.788;23.710;2022-09-20T12:58:20;151843.81;;;21.55;42.34
21877;BME280;11103;43.788;23.710;2022-09-20T13:08:31;151855.47;;;21.60;46.26
21877;BME280;11103;43.788;23.710;2022-09-20T13:11:11;151908.44;;;21.80;43.66
21877;BME280;11103;43.788;23.710;2022-09-20T13:13:57;151873.56;;;21.67;42.65
21877;BME280;11103;43.788;23.710;2022-09-20T13:19:17;151855.47;;;21.60;43.97
21877;BME280;11103;43.788;23.710;2022-09-20T13:21:54;151842.56;;;21.55;45.23
21877;BME280;11103;43.788;23.710;2022-09-20T13:24:23;151778.00;;;21.29;43.65
21877;BME280;11103;43.788;23.710;2022-09-20T13:26:49;151778.00;;;21.29;46.26
21877;BME280;11103;43.788;23.710;2022-09-20T13:29:30;151759.94;;;21.22;45.89
21877;BME280;11103;43.788;23.710;2022-09-20T13:34:41;151841.28;;;21.54;42.64
21877;BME280;11103;43.788;23.710;2022-09-20T13:37:16;151827.06;;;21.49;42.96
21877;BME280;11103;43.788;23.710;2022-09-20T13:39:45;151874.84;;;21.67;42.65
21877;BME280;11103;43.788;23.710;2022-09-20T13:42:15;151922.63;;;21.86;43.45
21877;BME280;11103;43.788;23.710;2022-09-20T13:44:44;151935.59;;;21.91;44.36
21877;BME280;11103;43.788;23.710;2022-09-20T13:47:26;151935.59;;;21.91;43.57
21877;BME280;11103;43.788;23.710;2022-09-20T13:49:58;151913.59;;;21.82;43.68
21877;BME280;11103;43.788;23.710;2022-09-20T13:52:27;151891.66;;;21.74;47.59
21877;BME280;11103;43.788;23.710;2022-09-20T13:54:53;151965.31;;;22.03;47.15
21877;BME280;11103;43.788;23.710;2022-09-20T13:57:26;151992.47;;;22.13;46.09
21877;BME280;11103;43.788;23.710;2022-09-20T13:59:54;152029.94;;;22.28;44.92
21877;BME280;11103;43.788;23.710;2022-09-20T14:02:31;152093.28;;;22.52;42.78
21877;BME280;11103;43.788;23.710;2022-09-20T14:05:03;152103.59;;;22.57;43.56
21877;BME280;11103;43.788;23.710;2022-09-20T14:07:29;152072.59;;;22.44;45.31
21877;BME280;11103;43.788;23.710;2022-09-20T14:09:56;152063.53;;;22.41;42.25
21877;BME280;11103;43.788;23.710;2022-09-20T14:12:24;152106.19;;;22.58;39.79
21877;BME280;11103;43.788;23.710;2022-09-20T14:14:51;152132.09;;;22.68;40.65
21877;BME280;11103;43.788;23.710;2022-09-20T14:17:19;152085.53;;;22.49;41.93
21877;BME280;11103;43.788;23.710;2022-09-20T14:19:51;152098.44;;;22.54;43.32
21877;BME280;11103;43.788;23.710;2022-09-20T14:22:22;152208.34;;;22.97;41.52
21877;BME280;11103;43.788;23.710;2022-09-20T14:25:00;152209.66;;;22.98;41.40
21877;BME280;11103;43.788;23.710;2022-09-20T14:27:26;152240.72;;;23.10;42.93
21877;BME280;11103;43.788;23.710;2022-09-20T14:29:53;152328.69;;;23.44;39.46
21877;BME280;11103;43.788;23.710;2022-09-20T14:37:25;152340.31;;;23.49;41.46
21877;BME280;11103;43.788;23.710;2022-09-20T14:39:56;152336.44;;;23.47;45.09
21877;BME280;11103;43.788;23.710;2022-09-20T14:42:48;152465.78;;;23.98;41.33
21877;BME280;11103;43.788;23.710;2022-09-20T14:45:35;152578.44;;;24.42;39.06
21877;BME280;11103;43.788;23.710;2022-09-20T14:48:28;152584.91;;;24.44;37.79
21877;BME280;11103;43.788;23.710;2022-09-20T14:51:19;152630.25;;;24.62;36.99
21877;BME280;11103;43.788;23.710;2022-09-20T14:56:39;152648.34;;;24.69;37.00
21877;BME280;11103;43.788;23.710;2022-09-20T14:59:20;152659.97;;;24.73;36.88
21877;BME280;11103;43.788;23.710;2022-09-20T15:02:09;152682.03;;;24.82;36.12
21877;BME280;11103;43.788;23.710;2022-09-20T15:04:38;152678.19;;;24.80;36.59
21877;BME280;11103;43.788;23.710;2022-09-20T15:07:07;152704.06;;;24.91;36.72
21877;BME280;11103;43.788;23.710;2022-09-20T15:09:34;152732.56;;;25.02;36.48
21877;BME280;11103;43.788;23.710;2022-09-20T15:12:05;152736.41;;;25.03;36.04
21877;BME280;11103;43.788;23.710;2022-09-20T15:14:31;152759.75;;;25.12;36.39
21877;BME280;11103;43.788;23.710;2022-09-20T15:16:57;152748.09;;;25.08;35.83
21877;BME280;11103;43.788;23.710;2022-09-20T15:19:24;152706.66;;;24.92;36.80
21877;BME280;11103;43.788;23.710;2022-09-20T15:21:49;152625.03;;;24.60;37.28
21877;BME280;11103;43.788;23.710;2022-09-20T15:24:14;152577.13;;;24.41;37.90
21877;BME280;11103;43.788;23.710;2022-09-20T15:26:42;152524.09;;;24.20;37.57
21877;BME280;11103;43.788;23.710;2022-09-20T15:29:13;152555.13;;;24.33;37.74
21877;BME280;11103;43.788;23.710;2022-09-20T15:31:39;152557.72;;;24.34;37.85
21877;BME280;11103;43.788;23.710;2022-09-20T15:34:05;152442.53;;;23.89;39.13
21877;BME280;11103;43.788;23.710;2022-09-20T15:36:31;152432.16;;;23.85;38.96
21877;BME280;11103;43.788;23.710;2022-09-20T15:38:57;152375.22;;;23.62;39.39
21877;BME280;11103;43.788;23.710;2022-09-20T15:41:22;152351.97;;;23.53;39.90
21877;BME280;11103;43.788;23.710;2022-09-20T15:43:48;152287.25;;;23.28;40.42
21877;BME280;11103;43.788;23.710;2022-09-20T15:46:22;152209.66;;;22.98;40.63
21877;BME280;11103;43.788;23.710;2022-09-20T15:48:49;151984.69;;;22.10;42.51
21877;BME280;11103;43.788;23.710;2022-09-20T15:51:14;151741.84;;;21.15;43.23
21877;BME280;11103;43.788;23.710;2022-09-20T15:53:54;151573.97;;;20.50;46.27
21877;BME280;11103;43.788;23.710;2022-09-20T15:56:30;151366.22;;;19.69;48.63
21877;BME280;11103;43.788;23.710;2022-09-20T15:59:01;151272.06;;;19.32;49.92
21877;BME280;11103;43.788;23.710;2022-09-20T16:01:32;151176.66;;;18.94;51.25
21877;BME280;11103;43.788;23.710;2022-09-20T16:04:07;151052.91;;;18.46;52.26
21877;BME280;11103;43.788;23.710;2022-09-20T16:06:33;151007.81;;;18.28;52.75
21877;BME280;11103;43.788;23.710;2022-09-20T16:08:58;150926.66;;;17.97;54.35
21877;BME280;11103;43.788;23.710;2022-09-20T16:11:24;150884.19;;;17.80;54.61
21877;BME280;11103;43.788;23.710;2022-09-20T16:13:56;150866.13;;;17.73;55.88
21877;BME280;11103;43.788;23.710;2022-09-20T16:16:22;150823.63;;;17.56;58.29
21877;BME280;11103;43.788;23.710;2022-09-20T16:18:48;150766.94;;;17.34;59.52
21877;BME280;11103;43.788;23.710;2022-09-20T16:21:38;150718.03;;;17.15;60.61
21877;BME280;11103;43.788;23.710;2022-09-20T16:24:04;150665.28;;;16.94;62.34
21877;BME280;11103;43.788;23.710;2022-09-20T16:26:30;150643.41;;;16.86;63.51
21877;BME280;11103;43.788;23.710;2022-09-20T16:28:56;150597.09;;;16.67;63.33
21877;BME280;11103;43.788;23.710;2022-09-20T16:33:50;150561.06;;;16.53;64.18
21877;BME280;11103;43.788;23.710;2022-09-20T16:36:15;150534.00;;;16.43;64.50
21877;BME280;11103;43.788;23.710;2022-09-20T16:38:42;150508.31;;;16.33;64.58
21877;BME280;11103;43.788;23.710;2022-09-20T16:41:08;150469.69;;;16.18;64.98
21877;BME280;11103;43.788;23.710;2022-09-20T16:43:34;150454.25;;;16.12;64.50
21877;BME280;11103;43.788;23.710;2022-09-20T16:46:00;150488.97;;;16.25;65.03
21877;BME280;11103;43.788;23.710;2022-09-20T16:48:26;150436.25;;;16.04;64.87
21877;BME280;11103;43.788;23.710;2022-09-20T16:50:57;150432.44;;;16.03;64.67
21877;BME280;11103;43.788;23.710;2022-09-20T16:53:25;150463.25;;;16.15;65.01
21877;BME280;11103;43.788;23.710;2022-09-20T16:55:51;150444.00;;;16.07;65.16
21877;BME280;11103;43.788;23.710;2022-09-20T16:58:25;150406.69;;;15.93;65.87
21877;BME280;11103;43.788;23.710;2022-09-20T17:00:50;150405.44;;;15.92;66.50
21877;BME280;11103;43.788;23.710;2022-09-20T17:03:16;150386.09;;;15.85;66.87
21877;BME280;11103;43.788;23.710;2022-09-20T17:05:41;150378.38;;;15.82;66.57
21877;BME280;11103;43.788;23.710;2022-09-20T17:08:07;150230.56;;;15.24;67.90
21877;BME280;11103;43.788;23.710;2022-09-20T17:10:34;150361.72;;;15.75;68.86
21877;BME280;11103;43.788;23.710;2022-09-20T17:12:59;150330.84;;;15.63;68.98
21877;BME280;11103;43.788;23.710;2022-09-20T17:15:25;150293.59;;;15.48;70.14
21877;BME280;11103;43.788;23.710;2022-09-20T17:17:51;150311.56;;;15.56;70.14
21877;BME280;11103;43.788;23.710;2022-09-20T17:20:16;150301.31;;;15.52;70.54
21877;BME280;11103;43.788;23.710;2022-09-20T17:22:42;150238.28;;;15.27;71.03
21877;BME280;11103;43.788;23.710;2022-09-20T17:25:07;150274.22;;;15.41;70.84
21877;BME280;11103;43.788;23.710;2022-09-20T17:27:33;150226.69;;;15.22;70.68
21877;BME280;11103;43.788;23.710;2022-09-20T17:30:01;150265.25;;;15.37;71.98
21877;BME280;11103;43.788;23.710;2022-09-20T17:32:26;150260.13;;;15.35;73.32
21877;BME280;11103;43.788;23.710;2022-09-20T17:34:53;150226.69;;;15.22;75.68
21877;BME280;11103;43.788;23.710;2022-09-20T17:37:18;150231.84;;;15.24;76.71
21877;BME280;11103;43.788;23.710;2022-09-20T17:39:43;150183.03;;;15.05;79.17
21877;BME280;11103;43.788;23.710;2022-09-20T17:42:09;150136.75;;;14.87;79.98
21877;BME280;11103;43.788;23.710;2022-09-20T17:44:34;150150.88;;;14.93;81.50
21877;BME280;11103;43.788;23.710;2022-09-20T17:47:01;150094.34;;;14.70;80.97